Time;durP1;ratioP1;P1;durP2;ratioP2;P2;SDS_P1;SDS_P2;PMS_P1;PMS_P2;Temp;Humidity;BMP_temperature;BMP_pressure;BME280_temperature;BME280_humidity;BME280_pressure;Samples;Min_cycle;Max_cycle;Signal;HPM_P1;HPM_P2
2023/09/20 00:19:06;;;;;;;2.65;1.65;;;19.50;77.70;;;;;;5031417;28;20109;-68
2023/09/20 00:21:33;;;;;;;5.60;1.58;;;19.50;77.60;;;;;;5035923;28;20036;-69
2023/09/20 00:23:59;;;;;;;4.32;1.90;;;19.50;77.80;;;;;;5033743;28;20125;-68
2023/09/20 00:26:25;;;;;;;5.95;2.00;;;19.50;77.80;;;;;;5036389;28;20041;-68
2023/09/20 00:28:51;;;;;;;3.15;1.75;;;19.50;77.90;;;;;;5031585;28;20152;-68
2023/09/20 00:31:18;;;;;;;6.15;3.20;;;19.50;77.90;;;;;;5033451;28;20045;-69
2023/09/20 00:33:45;;;;;;;4.57;2.65;;;19.50;77.90;;;;;;5032321;28;20037;-69
2023/09/20 00:36:20;;;;;;;6.05;2.78;;;19.50;77.90;;;;;;5025247;28;20051;-70
2023/09/20 00:38:51;;;;;;;4.47;1.98;;;19.60;78.10;;;;;;5038536;28;20041;-68
2023/09/20 00:41:18;;;;;;;6.30;2.42;;;19.50;77.90;;;;;;5035009;28;20036;-68
2023/09/20 00:43:44;;;;;;;3.65;2.42;;;19.50;77.90;;;;;;5036438;28;20119;-68
2023/09/20 00:46:12;;;;;;;3.50;2.17;;;19.50;77.90;;;;;;5028585;28;20468;-68
2023/09/20 00:48:39;;;;;;;4.93;1.90;;;19.50;77.90;;;;;;5032579;28;20025;-67
2023/09/20 00:51:06;;;;;;;5.85;2.17;;;19.50;77.90;;;;;;5036293;28;20029;-68
2023/09/20 00:53:35;;;;;;;4.88;2.33;;;19.60;78.60;;;;;;5028956;28;20092;-68
2023/09/20 00:56:03;;;;;;;5.05;2.03;;;19.50;77.90;;;;;;5030173;28;20037;-71
2023/09/20 00:58:30;;;;;;;4.28;2.10;;;19.50;77.90;;;;;;5042176;28;20359;-67
2023/09/20 01:00:57;;;;;;;5.53;2.70;;;19.50;77.90;;;;;;5055493;28;20107;-70
2023/09/20 01:03:24;;;;;;;4.30;1.55;;;19.50;77.90;;;;;;5059378;28;20363;-69
2023/09/20 01:05:50;;;;;;;6.53;2.38;;;19.50;78.40;;;;;;5053615;28;20091;-68
2023/09/20 01:08:17;;;;;;;4.63;1.67;;;19.50;77.90;;;;;;5045998;28;20037;-68
2023/09/20 01:10:45;;;;;;;4.07;2.25;;;19.50;77.90;;;;;;5049167;28;20036;-68
2023/09/20 01:13:21;;;;;;;4.40;2.10;;;19.50;77.90;;;;;;5040851;28;20036;-68
2023/09/20 01:15:48;;;;;;;3.53;2.20;;;19.50;77.90;;;;;;5049812;28;20025;-68
2023/09/20 01:18:14;;;;;;;5.10;2.70;;;19.50;77.90;;;;;;5052793;28;20569;-69
2023/09/20 01:20:40;;;;;;;4.30;2.10;;;19.50;77.90;;;;;;5056995;28;20313;-67
2023/09/20 01:23:08;;;;;;;4.82;2.03;;;19.50;77.90;;;;;;5054434;28;20038;-68
2023/09/20 01:25:35;;;;;;;4.05;2.03;;;19.50;78.00;;;;;;5055917;28;20032;-68
2023/09/20 01:28:04;;;;;;;3.85;2.00;;;19.50;78.00;;;;;;5055654;28;20043;-67
2023/09/20 01:30:32;;;;;;;5.03;1.75;;;19.50;78.00;;;;;;5059459;28;20117;-70
2023/09/20 01:33:01;;;;;;;6.90;2.25;;;19.50;78.00;;;;;;5054534;28;20029;-67
2023/09/20 01:35:28;;;;;;;3.78;2.03;;;19.50;77.90;;;;;;5055254;28;20237;-69
2023/09/20 01:37:58;;;;;;;6.05;3.10;;;19.50;77.90;;;;;;5056396;28;20028;-68
2023/09/20 01:40:33;;;;;;;4.60;1.95;;;19.50;77.90;;;;;;5056946;28;20399;-69
2023/09/20 01:43:03;;;;;;;3.95;2.60;;;19.40;77.70;;;;;;5054000;28;20151;-67
2023/09/20 01:45:30;;;;;;;5.45;2.58;;;19.50;77.90;;;;;;5062136;28;20353;-68
2023/09/20 01:48:06;;;;;;;6.93;2.90;;;19.40;77.70;;;;;;5053832;28;20428;-68
2023/09/20 01:50:33;;;;;;;6.75;2.72;;;19.40;77.70;;;;;;5055406;28;20434;-71
2023/09/20 01:53:00;;;;;;;6.18;2.65;;;19.50;77.90;;;;;;5052722;28;20524;-70
2023/09/20 01:55:28;;;;;;;5.10;3.15;;;19.40;77.70;;;;;;5048903;28;20033;-69
2023/09/20 01:57:55;;;;;;;5.95;3.17;;;19.40;78.20;;;;;;5049899;28;20036;-70
2023/09/20 02:00:33;;;;;;;5.13;2.83;;;19.40;77.60;;;;;;5056803;28;20040;-69
2023/09/20 02:03:06;;;;;;;7.57;3.60;;;19.40;77.60;;;;;;5063541;28;20411;-69
2023/09/20 02:05:33;;;;;;;6.25;3.53;;;19.40;77.70;;;;;;5051624;28;20243;-72
2023/09/20 02:07:59;;;;;;;7.32;3.70;;;19.40;77.60;;;;;;5057710;28;20142;-69
2023/09/20 02:10:25;;;;;;;10.63;3.80;;;19.40;77.60;;;;;;5054839;28;20047;-73
2023/09/20 02:12:56;;;;;;;8.52;3.78;;;19.40;77.60;;;;;;5053372;28;20471;-71
2023/09/20 02:15:29;;;;;;;8.23;3.33;;;19.40;77.60;;;;;;5031831;28;20164;-75
2023/09/20 02:17:55;;;;;;;11.07;4.93;;;19.40;77.60;;;;;;5054131;28;20029;-69
2023/09/20 02:20:30;;;;;;;14.55;4.93;;;19.40;77.50;;;;;;5061351;28;20582;-70
2023/09/20 02:22:57;;;;;;;8.73;3.70;;;19.40;77.60;;;;;;5052075;28;20067;-69
2023/09/20 02:25:26;;;;;;;8.50;4.55;;;19.40;77.60;;;;;;5054268;28;20036;-73
2023/09/20 02:27:54;;;;;;;8.77;3.90;;;19.40;77.60;;;;;;5051823;28;20041;-70
2023/09/20 02:30:24;;;;;;;7.13;3.88;;;19.40;77.60;;;;;;5053781;28;20024;-74
2023/09/20 02:32:53;;;;;;;9.00;4.70;;;19.40;77.60;;;;;;5056122;28;20036;-69
2023/09/20 02:35:20;;;;;;;13.10;5.22;;;19.40;77.60;;;;;;5053885;28;20112;-72
2023/09/20 02:37:47;;;;;;;8.75;3.65;;;19.30;77.40;;;;;;5049443;28;20118;-73
2023/09/20 02:40:15;;;;;;;9.68;5.20;;;19.30;77.50;;;;;;5048059;28;20111;-73
2023/09/20 02:42:43;;;;;;;9.18;4.95;;;19.30;77.50;;;;;;5033624;28;20047;-69
2023/09/20 02:45:12;;;;;;;10.73;5.75;;;19.30;77.50;;;;;;5055503;28;20032;-71
2023/09/20 02:47:43;;;;;;;10.10;4.68;;;19.30;77.50;;;;;;5060988;28;20062;-71
2023/09/20 02:50:12;;;;;;;9.75;4.90;;;19.30;77.60;;;;;;5034609;28;20033;-68
2023/09/20 02:52:41;;;;;;;7.95;4.45;;;19.30;77.50;;;;;;5060785;28;20032;-72
2023/09/20 02:55:08;;;;;;;9.88;4.70;;;19.30;77.60;;;;;;5060955;28;20440;-70
2023/09/20 02:57:38;;;;;;;8.57;4.72;;;19.30;77.60;;;;;;5066374;28;20031;-72
2023/09/20 03:00:15;;;;;;;11.70;4.95;;;19.30;77.60;;;;;;5058884;28;20346;-73
2023/09/20 03:02:49;;;;;;;10.40;4.80;;;19.30;77.60;;;;;;5066750;28;20131;-71
2023/09/20 03:05:17;;;;;;;9.48;4.40;;;19.30;77.60;;;;;;5052623;28;20111;-70
2023/09/20 03:07:44;;;;;;;8.02;4.63;;;19.30;77.60;;;;;;5056412;28;20883;-70
2023/09/20 03:10:12;;;;;;;10.23;5.68;;;19.30;77.70;;;;;;5066917;28;20057;-70
2023/09/20 03:12:44;;;;;;;9.93;5.97;;;19.30;77.70;;;;;;5069572;28;20029;-72
2023/09/20 03:15:12;;;;;;;6.95;4.88;;;19.30;77.70;;;;;;5060057;28;20040;-72
2023/09/20 03:17:39;;;;;;;10.00;5.80;;;19.30;77.70;;;;;;5062728;28;20148;-69
2023/09/20 03:20:12;;;;;;;11.35;5.88;;;19.20;77.50;;;;;;5062409;28;20033;-70
2023/09/20 03:22:40;;;;;;;11.98;5.80;;;19.30;77.70;;;;;;5065816;28;20539;-70
2023/09/20 03:25:09;;;;;;;12.18;6.15;;;19.30;77.70;;;;;;5061112;28;21072;-70
2023/09/20 03:27:40;;;;;;;13.10;6.05;;;19.20;77.60;;;;;;5044794;28;20051;-71
2023/09/20 03:30:10;;;;;;;9.90;5.50;;;19.20;77.60;;;;;;5063487;28;20122;-69
2023/09/20 03:32:39;;;;;;;11.43;5.70;;;19.20;77.50;;;;;;5059831;28;20553;-72
2023/09/20 03:35:07;;;;;;;11.38;6.03;;;19.20;77.50;;;;;;5059239;28;20028;-73
2023/09/20 03:37:36;;;;;;;10.63;6.18;;;19.20;77.50;;;;;;5057955;28;20059;-69
2023/09/20 03:40:06;;;;;;;8.88;5.60;;;19.20;77.60;;;;;;5060145;28;20142;-74
2023/09/20 03:42:33;;;;;;;11.52;6.25;;;19.20;77.60;;;;;;5060510;28;20115;-71
2023/09/20 03:45:00;;;;;;;11.27;6.68;;;19.20;77.60;;;;;;5060022;28;20031;-70
2023/09/20 03:47:28;;;;;;;12.10;5.82;;;19.20;77.60;;;;;;5058489;28;20124;-69
2023/09/20 03:49:55;;;;;;;11.45;6.07;;;19.20;77.60;;;;;;5048959;28;20029;-73
2023/09/20 03:52:21;;;;;;;14.15;7.63;;;19.20;77.60;;;;;;5047920;28;20032;-73
2023/09/20 03:54:53;;;;;;;12.20;6.10;;;19.20;77.60;;;;;;5056909;28;20038;-70
2023/09/20 03:57:24;;;;;;;13.23;6.57;;;19.20;77.60;;;;;;5054612;28;20039;-72
2023/09/20 03:59:52;;;;;;;11.73;6.03;;;19.20;77.60;;;;;;5056438;28;20048;-70
2023/09/20 04:02:19;;;;;;;12.82;7.00;;;19.20;77.60;;;;;;5067949;28;20028;-70
2023/09/20 04:04:46;;;;;;;12.10;6.60;;;19.20;77.70;;;;;;5067722;28;20489;-70
2023/09/20 04:07:12;;;;;;;12.77;8.32;;;19.20;77.70;;;;;;5064944;28;20059;-72
2023/09/20 04:09:40;;;;;;;14.38;8.43;;;19.20;77.70;;;;;;5051417;28;20021;-71
2023/09/20 04:12:06;;;;;;;13.57;7.60;;;19.20;77.60;;;;;;5065647;28;20081;-69
2023/09/20 04:14:33;;;;;;;13.88;6.60;;;19.20;77.70;;;;;;5061049;28;20441;-72
2023/09/20 04:16:59;;;;;;;14.20;7.65;;;19.10;77.60;;;;;;5058250;28;20085;-72
2023/09/20 04:19:25;;;;;;;12.30;7.32;;;19.10;77.50;;;;;;5060694;28;20036;-71
2023/09/20 04:21:51;;;;;;;14.20;8.05;;;19.10;77.50;;;;;;5057452;28;20358;-71
2023/09/20 04:24:17;;;;;;;14.82;8.90;;;19.10;77.60;;;;;;5060300;28;20029;-69
2023/09/20 04:26:43;;;;;;;13.45;8.63;;;19.10;77.50;;;;;;5060684;28;20087;-70
2023/09/20 04:29:10;;;;;;;16.08;9.13;;;19.10;77.50;;;;;;5060315;28;20037;-69
2023/09/20 04:31:37;;;;;;;14.45;8.60;;;19.10;77.40;;;;;;5057973;28;20029;-69
2023/09/20 04:34:05;;;;;;;15.00;8.57;;;19.10;77.30;;;;;;5050915;28;20033;-74
2023/09/20 04:36:31;;;;;;;14.20;8.20;;;19.10;77.30;;;;;;5052442;28;20032;-71
2023/09/20 04:38:57;;;;;;;14.55;9.02;;;19.10;77.30;;;;;;5035757;28;20017;-73
2023/09/20 04:41:23;;;;;;;15.07;9.05;;;19.10;77.40;;;;;;5053852;28;20384;-68
2023/09/20 04:43:50;;;;;;;18.38;8.27;;;19.10;77.30;;;;;;5055704;28;20382;-71
2023/09/20 04:46:15;;;;;;;14.88;7.97;;;19.10;77.30;;;;;;5037934;28;20572;-69
2023/09/20 04:48:42;;;;;;;17.52;8.60;;;19.10;77.20;;;;;;5050429;28;20063;-69
2023/09/20 04:51:09;;;;;;;17.92;7.70;;;19.10;77.30;;;;;;5045236;28;20580;-69
2023/09/20 04:53:36;;;;;;;16.80;7.85;;;19.10;77.20;;;;;;5055841;28;20024;-70
2023/09/20 04:56:02;;;;;;;15.00;8.35;;;19.10;77.10;;;;;;5052106;28;20381;-73
2023/09/20 04:58:30;;;;;;;13.85;7.75;;;19.10;77.10;;;;;;5054787;28;20048;-70
2023/09/20 05:00:56;;;;;;;18.10;8.10;;;19.10;77.10;;;;;;5051533;28;20033;-68
2023/09/20 05:03:21;;;;;;;17.63;8.27;;;19.10;77.10;;;;;;5055292;28;20085;-69
2023/09/20 05:05:50;;;;;;;13.98;7.75;;;19.10;77.10;;;;;;5053758;28;20032;-67
2023/09/20 05:08:18;;;;;;;14.48;7.70;;;19.10;77.10;;;;;;5057629;28;20339;-69
2023/09/20 05:10:45;;;;;;;14.32;7.65;;;19.10;77.10;;;;;;5055490;28;20028;-67
2023/09/20 05:13:11;;;;;;;13.85;8.00;;;19.10;77.10;;;;;;5057798;28;20182;-69
2023/09/20 05:15:38;;;;;;;16.08;7.68;;;19.10;77.10;;;;;;5055697;28;20127;-67
2023/09/20 05:18:05;;;;;;;16.58;7.50;;;19.10;77.00;;;;;;5060229;28;20038;-68
2023/09/20 05:20:32;;;;;;;14.98;7.22;;;19.10;77.10;;;;;;5064837;28;20028;-67
2023/09/20 05:22:59;;;;;;;13.90;7.03;;;19.10;77.10;;;;;;5057448;28;20135;-70
2023/09/20 05:25:26;;;;;;;13.65;7.68;;;19.10;77.10;;;;;;5064124;28;20032;-69
2023/09/20 05:27:54;;;;;;;12.65;6.95;;;19.10;77.10;;;;;;5043057;28;20086;-69
2023/09/20 05:30:21;;;;;;;14.55;7.22;;;19.10;77.10;;;;;;5044190;28;20129;-70
2023/09/20 05:32:51;;;;;;;16.92;7.00;;;19.10;77.00;;;;;;5060064;28;20036;-70
2023/09/20 05:35:17;;;;;;;14.98;7.93;;;19.10;77.00;;;;;;5057336;28;20468;-70
2023/09/20 05:37:44;;;;;;;17.55;7.90;;;19.10;76.90;;;;;;5053912;28;20359;-70
2023/09/20 05:40:17;;;;;;;15.43;8.13;;;19.10;76.90;;;;;;5058643;28;20499;-70
2023/09/20 05:42:47;;;;;;;10.63;6.22;;;19.10;76.80;;;;;;5056545;28;20077;-71
2023/09/20 05:45:14;;;;;;;15.27;7.88;;;19.10;76.80;;;;;;5059766;28;20468;-70
2023/09/20 05:47:41;;;;;;;15.07;6.93;;;19.10;76.80;;;;;;5057176;28;20064;-71
2023/09/20 05:50:12;;;;;;;15.13;7.35;;;19.10;76.70;;;;;;5047873;28;20561;-71
2023/09/20 05:52:43;;;;;;;15.20;7.80;;;19.10;76.70;;;;;;5054026;28;20443;-69
2023/09/20 05:55:16;;;;;;;15.88;7.88;;;19.10;76.70;;;;;;5056435;28;20557;-70
2023/09/20 05:57:43;;;;;;;11.93;6.50;;;19.10;76.70;;;;;;5053092;28;20115;-70
2023/09/20 06:00:16;;;;;;;13.75;6.38;;;19.10;76.60;;;;;;5057196;28;20122;-70
2023/09/20 06:02:45;;;;;;;14.77;7.50;;;19.10;76.60;;;;;;5057896;28;20082;-72
2023/09/20 06:05:11;;;;;;;13.20;6.55;;;19.10;76.60;;;;;;5058395;28;20107;-71
2023/09/20 06:07:40;;;;;;;16.60;7.10;;;19.10;76.70;;;;;;5059454;28;20064;-70
2023/09/20 06:10:07;;;;;;;17.75;7.28;;;19.10;76.70;;;;;;5057255;28;20145;-70
2023/09/20 06:12:33;;;;;;;12.35;6.68;;;19.10;76.70;;;;;;5060348;28;20069;-70
2023/09/20 06:15:00;;;;;;;14.15;6.88;;;19.20;76.90;;;;;;5057695;28;20028;-72
2023/09/20 06:17:29;;;;;;;14.23;7.25;;;19.10;76.70;;;;;;5055245;28;20040;-70
2023/09/20 06:19:58;;;;;;;18.77;7.75;;;19.10;76.70;;;;;;5058149;28;20102;-72
2023/09/20 06:22:28;;;;;;;13.45;5.93;;;19.20;76.90;;;;;;5052167;28;20032;-70
2023/09/20 06:24:58;;;;;;;16.42;7.53;;;19.20;77.00;;;;;;5059381;28;20074;-71
2023/09/20 06:27:31;;;;;;;12.98;6.20;;;19.20;77.00;;;;;;5057760;28;20072;-70
2023/09/20 06:29:57;;;;;;;15.45;6.72;;;19.20;77.10;;;;;;5058207;28;20033;-71
2023/09/20 06:32:24;;;;;;;13.77;7.28;;;19.20;77.10;;;;;;5059965;28;20106;-72
2023/09/20 06:34:51;;;;;;;13.60;5.65;;;19.20;77.20;;;;;;5050574;28;20044;-72
2023/09/20 06:37:17;;;;;;;15.15;8.25;;;19.20;77.20;;;;;;5057812;28;20519;-71
2023/09/20 06:39:44;;;;;;;15.20;6.32;;;19.20;77.20;;;;;;5058066;28;20025;-71
2023/09/20 06:42:11;;;;;;;11.85;6.03;;;19.20;77.20;;;;;;5054122;28;20035;-70
2023/09/20 06:44:39;;;;;;;11.18;6.70;;;19.30;77.40;;;;;;5054203;28;20059;-71
2023/09/20 06:47:08;;;;;;;13.05;6.53;;;19.30;77.40;;;;;;5053023;28;20159;-71
2023/09/20 06:49:37;;;;;;;17.27;6.80;;;19.30;77.40;;;;;;5062036;28;20025;-71
2023/09/20 06:52:05;;;;;;;14.55;6.55;;;19.30;77.40;;;;;;5055869;28;20024;-71
2023/09/20 06:54:33;;;;;;;15.10;7.25;;;19.40;77.40;;;;;;5054657;28;20020;-70
2023/09/20 06:57:03;;;;;;;16.70;7.55;;;19.40;77.30;;;;;;5054054;28;20032;-70
2023/09/20 06:59:33;;;;;;;10.32;6.35;;;19.40;77.20;;;;;;5054286;28;20032;-71
2023/09/20 07:02:00;;;;;;;14.77;7.25;;;19.40;77.10;;;;;;5052287;28;20044;-70
2023/09/20 07:04:27;;;;;;;10.57;6.30;;;19.40;77.10;;;;;;5060438;28;20047;-71
2023/09/20 07:06:57;;;;;;;15.23;6.80;;;19.40;77.00;;;;;;5058325;28;20127;-70
2023/09/20 07:09:23;;;;;;;14.35;7.15;;;19.40;77.00;;;;;;5062898;28;20028;-70
2023/09/20 07:11:50;;;;;;;14.40;6.45;;;19.40;76.90;;;;;;5054041;28;20040;-70
2023/09/20 07:14:26;;;;;;;14.15;6.50;;;19.40;76.90;;;;;;5058461;28;20538;-70
2023/09/20 07:16:52;;;;;;;15.77;6.97;;;19.40;76.90;;;;;;5057333;28;20542;-71
2023/09/20 07:19:22;;;;;;;16.65;7.60;;;19.40;76.80;;;;;;5061459;28;20060;-71
2023/09/20 07:21:48;;;;;;;14.10;6.80;;;19.40;76.80;;;;;;5058023;28;20559;-70
2023/09/20 07:24:15;;;;;;;12.10;6.32;;;19.40;76.80;;;;;;5060251;28;20374;-71
2023/09/20 07:26:44;;;;;;;15.38;6.53;;;19.40;76.80;;;;;;5056707;28;20044;-71
2023/09/20 07:29:15;;;;;;;12.38;6.00;;;19.40;76.80;;;;;;5053339;28;20525;-70
2023/09/20 07:31:42;;;;;;;13.75;6.63;;;19.40;76.90;;;;;;5055944;28;20435;-70
2023/09/20 07:34:12;;;;;;;18.48;6.82;;;19.40;76.90;;;;;;5061190;28;20028;-70
2023/09/20 07:36:40;;;;;;;13.45;7.13;;;19.30;76.80;;;;;;5053711;28;20028;-70
2023/09/20 07:39:13;;;;;;;14.77;6.53;;;19.30;76.90;;;;;;5059782;28;20116;-70
2023/09/20 07:41:46;;;;;;;12.20;7.03;;;19.30;76.90;;;;;;5058872;28;20044;-70
2023/09/20 07:44:15;;;;;;;11.18;6.35;;;19.30;77.00;;;;;;5056039;28;20538;-70
2023/09/20 07:46:42;;;;;;;11.48;5.65;;;19.30;77.00;;;;;;5057689;28;20369;-70
2023/09/20 07:49:13;;;;;;;16.08;7.18;;;19.30;77.10;;;;;;5060569;28;21014;-70
2023/09/20 07:51:40;;;;;;;10.70;5.35;;;19.30;77.10;;;;;;5054461;28;20079;-70
2023/09/20 07:54:10;;;;;;;10.30;5.55;;;19.30;77.20;;;;;;5056385;28;20555;-70
2023/09/20 07:56:37;;;;;;;13.70;5.57;;;19.30;77.30;;;;;;5054981;28;20032;-70
2023/09/20 07:59:04;;;;;;;14.55;5.45;;;19.20;77.10;;;;;;5056578;28;20193;-70
2023/09/20 08:01:31;;;;;;;11.88;5.22;;;19.20;77.20;;;;;;5056077;28;20044;-69
2023/09/20 08:03:59;;;;;;;12.95;5.40;;;19.20;77.30;;;;;;5052273;28;20037;-70
2023/09/20 08:06:26;;;;;;;11.18;6.03;;;19.20;77.40;;;;;;5060689;28;20095;-70
2023/09/20 08:08:52;;;;;;;13.85;6.95;;;19.20;77.50;;;;;;5052437;28;20025;-70
2023/09/20 08:11:18;;;;;;;13.73;5.80;;;19.20;77.50;;;;;;5058398;28;20147;-70
2023/09/20 08:13:44;;;;;;;13.73;5.43;;;19.10;77.50;;;;;;5045773;28;20593;-70
2023/09/20 08:16:12;;;;;;;13.07;5.50;;;19.10;77.60;;;;;;5057888;28;20373;-70
2023/09/20 08:21:29;;;;;;;11.70;4.78;;;19.10;77.70;;;;;;5050970;28;20157;-70
2023/09/20 09:00:30;;;;;;;7.75;4.72;;;19.40;78.20;;;;;;5055371;28;20036;-69
2023/09/20 09:03:04;;;;;;;11.85;4.95;;;19.40;78.00;;;;;;5056704;28;20033;-71
2023/09/20 09:05:32;;;;;;;9.48;4.68;;;19.50;78.00;;;;;;5058926;28;20028;-72
2023/09/20 09:08:03;;;;;;;9.85;3.95;;;19.60;78.10;;;;;;5057149;28;20036;-71
2023/09/20 09:10:29;;;;;;;10.40;4.60;;;19.70;78.20;;;;;;5058488;28;20029;-71
2023/09/20 09:12:55;;;;;;;8.13;4.88;;;19.80;78.20;;;;;;5057111;28;20036;-71
2023/09/20 09:15:23;;;;;;;9.20;4.10;;;19.80;78.00;;;;;;5057914;28;20040;-71
2023/09/20 09:17:49;;;;;;;12.32;5.68;;;19.90;78.00;;;;;;5062089;28;20035;-71
2023/09/20 09:20:19;;;;;;;12.32;4.97;;;19.90;78.00;;;;;;5056631;28;20033;-71
2023/09/20 09:22:45;;;;;;;9.05;4.38;;;19.90;77.90;;;;;;5055601;28;20050;-70
2023/09/20 09:25:25;;;;;;;7.70;3.88;;;20.00;78.00;;;;;;5056154;28;20059;-69
2023/09/20 09:27:53;;;;;;;11.80;4.80;;;20.00;78.00;;;;;;5058234;28;20101;-70
2023/09/20 09:30:19;;;;;;;7.68;4.30;;;20.00;78.10;;;;;;5058288;28;20040;-71
2023/09/20 09:32:47;;;;;;;11.15;5.05;;;20.00;78.10;;;;;;5055932;28;20039;-71
2023/09/20 09:35:15;;;;;;;12.70;4.55;;;20.00;78.10;;;;;;5054690;28;20025;-70
2023/09/20 09:37:43;;;;;;;8.45;4.53;;;20.00;78.10;;;;;;5054054;28;20025;-71
2023/09/20 09:40:14;;;;;;;13.52;4.63;;;20.00;78.10;;;;;;5061414;28;20446;-70
2023/09/20 09:42:43;;;;;;;11.13;4.68;;;20.10;78.10;;;;;;5057014;28;20032;-70
2023/09/20 09:45:10;;;;;;;8.45;4.43;;;20.20;78.20;;;;;;5058603;28;20699;-70
2023/09/20 09:47:37;;;;;;;13.40;5.18;;;20.20;78.10;;;;;;5053157;28;20036;-70
2023/09/20 09:50:06;;;;;;;9.00;3.95;;;20.20;78.00;;;;;;5052905;28;20132;-69
2023/09/20 09:52:35;;;;;;;12.60;4.57;;;20.20;78.00;;;;;;5054204;28;20028;-70
2023/09/20 09:55:01;;;;;;;8.07;3.72;;;20.20;78.00;;;;;;5055663;28;20146;-70
2023/09/20 09:57:27;;;;;;;12.35;4.55;;;20.20;78.00;;;;;;5054542;28;20452;-71
2023/09/20 09:59:54;;;;;;;10.70;4.78;;;20.20;78.00;;;;;;5056506;28;20121;-71
2023/09/20 10:02:31;;;;;;;9.07;4.10;;;20.20;78.10;;;;;;5056820;28;20035;-71
2023/09/20 10:05:07;;;;;;;12.60;5.47;;;20.20;78.10;;;;;;5063646;28;20026;-70
2023/09/20 10:07:38;;;;;;;8.73;4.07;;;20.20;78.00;;;;;;5057674;28;20040;-70
2023/09/20 10:10:12;;;;;;;7.85;4.22;;;20.20;78.00;;;;;;5055340;28;20447;-70
2023/09/20 10:12:44;;;;;;;10.35;4.18;;;20.20;78.00;;;;;;5056150;28;20036;-70
2023/09/20 10:15:12;;;;;;;8.85;3.58;;;20.20;78.00;;;;;;5059182;28;20033;-71
2023/09/20 10:17:51;;;;;;;10.50;4.70;;;20.20;78.00;;;;;;5061893;28;20087;-70
2023/09/20 10:20:18;;;;;;;8.02;3.35;;;20.20;78.00;;;;;;5060465;28;20028;-71
2023/09/20 10:22:48;;;;;;;9.40;4.53;;;20.20;78.00;;;;;;5054304;28;20028;-71
2023/09/20 10:25:31;;;;;;;8.82;3.67;;;20.30;78.10;;;;;;5059118;28;20036;-70
2023/09/20 10:27:57;;;;;;;11.65;4.43;;;20.30;78.10;;;;;;5055548;28;20554;-70
2023/09/20 10:30:23;;;;;;;11.40;4.47;;;20.30;78.00;;;;;;5059877;28;20769;-71
2023/09/20 10:32:57;;;;;;;9.20;3.55;;;20.30;78.00;;;;;;5056144;28;20029;-70
2023/09/20 10:35:31;;;;;;;8.30;3.50;;;20.40;78.10;;;;;;5058146;28;20032;-70
2023/09/20 10:38:08;;;;;;;11.80;4.07;;;20.50;78.20;;;;;;5055133;28;20273;-70
2023/09/20 10:40:45;;;;;;;15.05;5.22;;;20.60;78.10;;;;;;5063206;28;20025;-71
2023/09/20 10:43:35;;;;;;;9.18;3.75;;;20.60;77.90;;;;;;5055476;28;20032;-71
2023/09/20 10:46:09;;;;;;;7.90;3.38;;;20.70;78.00;;;;;;5053662;28;20039;-70
2023/09/20 10:48:56;;;;;;;9.50;4.18;;;20.70;77.90;;;;;;5057512;28;20464;-71
2023/09/20 10:51:43;;;;;;;9.80;3.83;;;20.70;77.90;;;;;;5048369;28;20032;-71
2023/09/20 10:54:25;;;;;;;8.50;3.10;;;20.70;77.80;;;;;;5056228;28;20123;-71
2023/09/20 10:56:51;;;;;;;6.63;3.20;;;20.80;78.00;;;;;;5061427;28;20454;-71
2023/09/20 10:59:21;;;;;;;7.95;4.07;;;20.80;77.90;;;;;;5057996;28;20072;-70
2023/09/20 11:02:17;;;;;;;8.38;3.22;;;20.90;77.90;;;;;;5061652;28;20036;-71
2023/09/20 11:04:46;;;;;;;7.22;2.67;;;20.90;77.80;;;;;;5056715;28;20041;-71
2023/09/20 11:07:14;;;;;;;5.30;2.70;;;20.90;77.70;;;;;;5060406;28;20040;-70
2023/09/20 11:09:42;;;;;;;5.10;2.45;;;20.90;77.80;;;;;;5056148;28;20476;-71
2023/09/20 11:12:09;;;;;;;6.85;3.42;;;20.90;77.80;;;;;;5059736;28;20390;-71
2023/09/20 11:14:39;;;;;;;7.30;2.60;;;20.90;77.80;;;;;;5059277;28;20107;-70
2023/09/20 11:17:05;;;;;;;9.52;3.67;;;20.90;77.70;;;;;;5058289;28;20107;-71
2023/09/20 11:19:35;;;;;;;7.50;2.90;;;20.90;77.70;;;;;;5061829;28;20458;-71
2023/09/20 11:22:02;;;;;;;6.75;2.20;;;20.90;77.80;;;;;;5055288;28;20039;-70
2023/09/20 11:24:29;;;;;;;4.88;2.45;;;20.80;77.60;;;;;;5059036;28;20033;-70
2023/09/20 11:26:56;;;;;;;5.18;2.40;;;20.80;77.70;;;;;;5055318;28;20041;-71
2023/09/20 11:29:26;;;;;;;5.93;2.90;;;20.70;77.70;;;;;;5057364;28;20532;-71
2023/09/20 11:31:58;;;;;;;4.80;1.85;;;20.70;77.80;;;;;;5058258;28;20553;-71
2023/09/20 11:34:25;;;;;;;5.43;2.20;;;20.70;78.40;;;;;;5058359;28;20037;-70
2023/09/20 11:36:53;;;;;;;6.82;2.55;;;20.70;77.90;;;;;;5055893;28;20571;-70
2023/09/20 11:39:29;;;;;;;6.35;2.35;;;20.70;77.90;;;;;;5066804;28;20036;-71
2023/09/20 11:42:04;;;;;;;6.20;2.20;;;20.70;78.00;;;;;;5050488;28;20111;-70
2023/09/20 11:44:35;;;;;;;4.82;2.15;;;20.70;78.40;;;;;;5058956;28;20511;-72
2023/09/20 11:47:06;;;;;;;3.58;1.95;;;20.70;77.90;;;;;;5055037;28;20150;-71
2023/09/20 11:49:33;;;;;;;4.47;2.47;;;20.80;78.00;;;;;;5054207;28;20029;-70
2023/09/20 11:52:00;;;;;;;3.17;1.80;;;20.80;77.90;;;;;;5048700;28;20105;-70
2023/09/20 11:54:35;;;;;;;4.07;1.95;;;20.90;77.90;;;;;;5051687;28;20020;-70
2023/09/20 11:57:03;;;;;;;4.68;2.30;;;20.90;77.80;;;;;;5055795;28;20099;-70
2023/09/20 11:59:29;;;;;;;2.65;1.33;;;21.00;77.80;;;;;;5054001;28;20052;-70
2023/09/20 12:01:55;;;;;;;3.78;1.80;;;21.10;78.30;;;;;;5054856;28;20082;-71
2023/09/20 12:04:21;;;;;;;3.83;1.70;;;21.10;77.70;;;;;;5059127;28;20040;-71
2023/09/20 12:06:48;;;;;;;4.20;1.77;;;21.20;77.70;;;;;;5054402;28;20048;-71
2023/09/20 12:09:23;;;;;;;4.25;1.50;;;21.30;77.70;;;;;;5051493;28;20280;-71
2023/09/20 12:11:50;;;;;;;4.15;1.55;;;21.30;77.50;;;;;;5057493;28;20040;-70
2023/09/20 12:14:19;;;;;;;5.38;1.50;;;21.40;77.50;;;;;;5049681;28;20028;-69
2023/09/20 12:16:48;;;;;;;3.17;1.50;;;21.50;77.60;;;;;;5053121;28;20115;-70
2023/09/20 12:19:17;;;;;;;5.53;1.60;;;21.50;77.50;;;;;;5054185;28;20111;-70
2023/09/20 12:21:44;;;;;;;3.42;1.65;;;21.50;77.40;;;;;;5057924;28;20139;-71
2023/09/20 12:24:13;;;;;;;3.03;1.17;;;21.40;77.30;;;;;;5049923;28;20040;-70
2023/09/20 12:26:41;;;;;;;1.40;1.15;;;21.40;77.40;;;;;;5057235;28;20051;-72
2023/09/20 12:29:07;;;;;;;3.95;1.40;;;21.30;77.40;;;;;;5059643;28;20021;-72
2023/09/20 12:31:33;;;;;;;3.42;1.10;;;21.30;77.40;;;;;;5063608;28;20028;-71
2023/09/20 12:34:02;;;;;;;4.68;1.40;;;21.30;77.50;;;;;;5060383;28;20040;-71
2023/09/20 12:36:30;;;;;;;2.08;1.30;;;21.20;77.50;;;;;;5056958;28;20135;-70
2023/09/20 12:38:56;;;;;;;2.67;1.48;;;21.20;77.60;;;;;;5061201;28;20080;-70
2023/09/20 12:41:25;;;;;;;2.25;1.30;;;21.20;77.60;;;;;;5059248;28;20518;-71
2023/09/20 12:43:51;;;;;;;3.83;0.90;;;21.10;77.60;;;;;;5052991;28;20036;-72
2023/09/20 12:46:18;;;;;;;3.75;1.40;;;21.10;77.70;;;;;;5054303;28;20064;-72
2023/09/20 12:48:45;;;;;;;3.63;0.98;;;21.10;77.80;;;;;;5057119;28;20028;-72
2023/09/20 12:51:12;;;;;;;3.65;1.40;;;21.00;77.70;;;;;;5043412;28;20044;-70
2023/09/20 12:53:39;;;;;;;2.20;0.90;;;21.00;77.70;;;;;;5057852;28;20028;-71
2023/09/20 12:56:07;;;;;;;3.55;1.00;;;21.00;77.70;;;;;;5053325;28;20203;-71
2023/09/20 12:58:33;;;;;;;1.92;0.90;;;21.00;77.70;;;;;;5056219;28;20041;-70
2023/09/20 13:00:59;;;;;;;5.70;1.10;;;20.90;77.60;;;;;;5057243;28;20207;-71
2023/09/20 13:03:28;;;;;;;2.03;0.80;;;20.90;77.60;;;;;;5056495;28;20226;-72
2023/09/20 13:05:55;;;;;;;2.75;0.80;;;20.90;77.70;;;;;;5049311;28;20033;-71
2023/09/20 13:08:21;;;;;;;2.95;0.75;;;20.80;77.50;;;;;;5055977;28;20044;-70
2023/09/20 13:10:51;;;;;;;2.20;0.70;;;20.80;77.50;;;;;;5055054;28;20052;-71
2023/09/20 13:13:20;;;;;;;2.53;0.90;;;20.80;77.50;;;;;;5050465;28;20036;-71
2023/09/20 13:15:47;;;;;;;4.32;1.58;;;20.80;77.50;;;;;;5053946;28;20041;-71
2023/09/20 13:18:13;;;;;;;4.53;1.15;;;20.80;77.60;;;;;;5055607;28;20051;-71
2023/09/20 13:20:43;;;;;;;3.22;0.57;;;20.70;77.40;;;;;;5058244;28;20077;-71
2023/09/20 13:23:10;;;;;;;2.20;0.77;;;20.80;77.50;;;;;;5051127;28;20085;-71
2023/09/20 13:25:39;;;;;;;3.35;1.73;;;20.80;77.40;;;;;;5056461;28;20035;-70
2023/09/20 13:28:11;;;;;;;2.17;1.30;;;20.80;77.40;;;;;;5053096;28;20423;-72
2023/09/20 13:30:40;;;;;;;6.65;1.70;;;20.80;77.30;;;;;;5056160;28;20028;-71
2023/09/20 13:33:08;;;;;;;9.82;2.50;;;20.80;77.20;;;;;;5046427;28;20032;-70
2023/09/20 13:35:34;;;;;;;1.95;0.60;;;20.70;77.10;;;;;;5061524;28;20359;-71
2023/09/20 13:38:03;;;;;;;6.75;1.08;;;20.70;77.10;;;;;;5060264;28;20068;-71
2023/09/20 13:40:30;;;;;;;3.00;0.77;;;20.70;77.20;;;;;;5059783;28;20043;-70
2023/09/20 13:42:57;;;;;;;3.47;1.10;;;20.70;77.10;;;;;;5050105;28;20129;-71
2023/09/20 13:45:25;;;;;;;5.95;0.98;;;20.70;77.10;;;;;;5056094;28;20043;-71
2023/09/20 13:47:52;;;;;;;4.05;0.95;;;20.70;77.10;;;;;;5062695;28;20085;-71